Time;durP1;ratioP1;P1;durP2;ratioP2;P2;SDS_P1;SDS_P2;PMS_P1;PMS_P2;Temp;Humidity;BMP_temperature;BMP_pressure;BME280_temperature;BME280_humidity;BME280_pressure;Samples;Min_cycle;Max_cycle;Signal;HPM_P1;HPM_P2
2023/10/22 00:02:21;;;;;;;;;;;13.00;99.90;;;;;;5123192;27;19912;-53
2023/10/22 00:04:47;;;;;;;;;;;13.00;99.90;;;;;;5124910;27;19956;-49
2023/10/22 00:07:15;;;;;;;;;;;13.00;99.90;;;;;;5119394;27;20327;-49
2023/10/22 00:09:40;;;;;;;;;;;13.00;99.90;;;;;;5120398;27;20370;-51
2023/10/22 00:12:06;;;;;;;;;;;13.00;99.90;;;;;;5122966;27;19927;-53
2023/10/22 00:14:31;;;;;;;;;;;13.00;99.90;;;;;;5125129;27;20419;-49
2023/10/22 00:16:57;;;;;;;;;;;13.00;99.90;;;;;;5120735;27;20338;-52
2023/10/22 00:19:22;;;;;;;;;;;13.00;99.90;;;;;;5118592;27;19911;-48
2023/10/22 00:21:48;;;;;;;;;;;13.00;99.90;;;;;;5125605;27;19908;-52
2023/10/22 00:24:13;;;;;;;;;;;13.00;99.90;;;;;;5118157;27;19962;-51
2023/10/22 00:26:42;;;;;;;;;;;13.00;99.90;;;;;;5132331;27;19929;-50
2023/10/22 00:29:07;;;;;;;;;;;13.10;99.90;;;;;;5122107;27;19911;-52
2023/10/22 00:31:33;;;;;;;;;;;13.10;99.90;;;;;;5118689;27;20010;-50
2023/10/22 00:33:58;;;;;;;;;;;13.10;99.90;;;;;;5120282;27;19918;-50
2023/10/22 00:36:24;;;;;;;;;;;13.10;99.90;;;;;;5116650;27;19912;-51
2023/10/22 00:38:53;;;;;;;;;;;13.20;99.90;;;;;;5113553;27;20282;-49
2023/10/22 00:41:18;;;;;;;;;;;13.20;99.90;;;;;;5124270;27;19968;-51
2023/10/22 00:43:43;;;;;;;;;;;13.20;99.90;;;;;;5116385;27;20324;-49
2023/10/22 00:46:15;;;;;;;;;;;13.30;99.90;;;;;;5123635;27;19911;-49
2023/10/22 00:48:40;;;;;;;;;;;13.30;99.90;;;;;;5132300;27;20255;-51
2023/10/22 00:51:06;;;;;;;;;;;13.30;99.90;;;;;;5133534;27;19914;-48
2023/10/22 00:53:31;;;;;;;;;;;13.30;99.90;;;;;;5133449;27;20294;-52
2023/10/22 00:55:57;;;;;;;;;;;13.30;99.90;;;;;;5132630;27;19911;-49
2023/10/22 00:58:23;;;;;;;;;;;13.40;99.90;;;;;;5132180;27;19911;-52
2023/10/22 01:00:48;;;;;;;;;;;13.40;99.90;;;;;;5132995;27;19911;-51
2023/10/22 01:03:16;;;;;;;;;;;13.40;99.90;;;;;;5133910;27;19947;-51
2023/10/22 01:05:41;;;;;;;;;;;13.40;99.90;;;;;;5133894;27;19907;-50
2023/10/22 01:08:08;;;;;;;;;;;13.40;99.90;;;;;;5134022;27;19911;-53
2023/10/22 01:10:33;;;;;;;;;;;13.40;99.90;;;;;;5131861;27;19975;-49
2023/10/22 01:12:59;;;;;;;;;;;13.40;99.90;;;;;;5119292;27;20320;-48
2023/10/22 01:15:26;;;;;;;;;;;13.40;99.90;;;;;;5124403;27;19978;-51
2023/10/22 01:17:51;;;;;;;;;;;13.40;99.90;;;;;;5117282;27;19955;-49
2023/10/22 01:20:17;;;;;;;;;;;13.50;99.90;;;;;;5118042;27;19970;-50
2023/10/22 01:22:42;;;;;;;;;;;13.40;99.90;;;;;;5121620;27;19911;-48
2023/10/22 01:25:08;;;;;;;;;;;13.40;99.90;;;;;;5124453;27;20396;-51
2023/10/22 01:27:33;;;;;;;;;;;13.40;99.90;;;;;;5125584;27;19913;-51
2023/10/22 01:29:59;;;;;;;;;;;13.40;99.90;;;;;;5124373;27;19915;-53
2023/10/22 01:32:30;;;;;;;;;;;13.40;99.90;;;;;;5119882;27;20017;-50
2023/10/22 01:34:56;;;;;;;;;;;13.40;99.90;;;;;;5121999;28;19943;-48
2023/10/22 01:37:23;;;;;;;;;;;13.40;99.90;;;;;;5124985;27;19919;-49
2023/10/22 01:39:49;;;;;;;;;;;13.40;99.90;;;;;;5122069;28;20013;-48
2023/10/22 01:42:14;;;;;;;;;;;13.40;99.90;;;;;;5121848;28;20024;-50
2023/10/22 01:44:40;;;;;;;;;;;13.40;99.90;;;;;;5120249;28;20334;-50
2023/10/22 01:47:05;;;;;;;;;;;13.40;99.90;;;;;;5114932;28;19912;-50
2023/10/22 01:49:31;;;;;;;;;;;13.40;99.90;;;;;;5121908;28;19932;-49
2023/10/22 01:51:56;;;;;;;;;;;13.40;99.90;;;;;;5119359;28;19916;-47
2023/10/22 01:54:22;;;;;;;;;;;13.40;99.90;;;;;;5125889;28;20393;-48
2023/10/22 01:56:47;;;;;;;;;;;13.30;99.90;;;;;;5124006;28;19912;-47
2023/10/22 01:59:13;;;;;;;;;;;13.30;99.90;;;;;;5121855;28;19960;-49
2023/10/22 02:01:39;;;;;;;;;;;13.20;99.90;;;;;;5119044;28;20401;-47
2023/10/22 02:04:04;;;;;;;;;;;13.20;99.90;;;;;;5125643;28;20362;-51
2023/10/22 02:06:30;;;;;;;;;;;13.10;99.90;;;;;;5118289;28;20003;-49
2023/10/22 02:08:55;;;;;;;;;;;13.10;99.90;;;;;;5121584;28;19908;-52
2023/10/22 02:11:21;;;;;;;;;;;13.00;99.90;;;;;;5119762;28;19912;-52
2023/10/22 02:13:47;;;;;;;;;;;13.00;99.90;;;;;;5122798;28;19916;-52
2023/10/22 02:16:12;;;;;;;;;;;12.90;99.90;;;;;;5125219;28;20368;-53
2023/10/22 02:18:38;;;;;;;;;;;12.90;99.90;;;;;;5125562;27;20432;-51
2023/10/22 02:21:03;;;;;;;;;;;12.90;99.90;;;;;;5128845;27;19916;-52
2023/10/22 02:23:29;;;;;;;;;;;12.80;99.90;;;;;;5116850;28;19907;-47
2023/10/22 02:25:54;;;;;;;;;;;12.80;99.90;;;;;;5120768;27;19911;-48
2023/10/22 02:28:20;;;;;;;;;;;12.70;99.90;;;;;;5129963;27;20006;-51
2023/10/22 02:30:49;;;;;;;;;;;12.70;99.90;;;;;;5125098;27;19912;-49
2023/10/22 02:33:14;;;;;;;;;;;12.70;99.90;;;;;;5126060;27;20258;-48
2023/10/22 02:35:43;;;;;;;;;;;12.70;99.90;;;;;;5120710;27;19919;-50
2023/10/22 02:38:13;;;;;;;;;;;12.70;99.90;;;;;;5123212;27;20006;-51
2023/10/22 02:40:38;;;;;;;;;;;12.70;99.90;;;;;;5128784;27;20382;-54
2023/10/22 02:43:06;;;;;;;;;;;12.70;99.90;;;;;;5120043;27;19941;-52
2023/10/22 02:45:33;;;;;;;;;;;12.70;99.90;;;;;;5128095;27;20412;-50
2023/10/22 02:47:59;;;;;;;;;;;12.70;99.90;;;;;;5125594;27;20004;-50
2023/10/22 02:50:25;;;;;;;;;;;12.70;99.90;;;;;;5122801;27;19911;-51
2023/10/22 02:52:51;;;;;;;;;;;12.70;99.90;;;;;;5116296;27;20434;-51
2023/10/22 02:55:17;;;;;;;;;;;12.70;99.90;;;;;;5116583;27;19954;-50
2023/10/22 02:57:42;;;;;;;;;;;12.60;99.90;;;;;;5116120;28;19911;-51
2023/10/22 03:00:11;;;;;;;;;;;12.70;99.90;;;;;;5117021;27;19919;-51
2023/10/22 03:02:37;;;;;;;;;;;12.60;99.90;;;;;;5136388;27;19981;-52
2023/10/22 03:05:02;;;;;;;;;;;12.60;99.90;;;;;;5136067;27;20014;-51
2023/10/22 03:07:28;;;;;;;;;;;12.70;99.90;;;;;;5136369;27;20011;-50
2023/10/22 03:09:53;;;;;;;;;;;12.60;99.90;;;;;;5120613;27;19911;-52
2023/10/22 03:12:19;;;;;;;;;;;12.60;99.90;;;;;;5116603;27;19920;-51
2023/10/22 03:14:45;;;;;;;;;;;12.70;99.90;;;;;;5123243;27;20269;-50
2023/10/22 03:17:10;;;;;;;;;;;12.70;99.90;;;;;;5116667;27;19916;-52
2023/10/22 03:19:36;;;;;;;;;;;12.70;99.90;;;;;;5126952;27;20298;-50
2023/10/22 03:22:02;;;;;;;;;;;12.70;99.90;;;;;;5115452;28;19908;-49
2023/10/22 03:24:27;;;;;;;;;;;12.70;99.90;;;;;;5123873;27;19961;-50
2023/10/22 03:26:53;;;;;;;;;;;12.70;99.90;;;;;;5097410;28;19961;-51
2023/10/22 03:29:18;;;;;;;;;;;12.70;99.90;;;;;;5115229;28;19943;-50
2023/10/22 03:31:44;;;;;;;;;;;12.70;99.90;;;;;;5128733;27;19915;-51
2023/10/22 03:34:09;;;;;;;;;;;12.70;99.90;;;;;;5135859;27;19950;-48
2023/10/22 03:36:35;;;;;;;;;;;12.80;99.90;;;;;;5131569;27;20373;-51
2023/10/22 03:39:00;;;;;;;;;;;12.70;99.90;;;;;;5128747;27;19966;-53
2023/10/22 03:41:26;;;;;;;;;;;12.70;99.90;;;;;;5124252;27;19947;-50
2023/10/22 03:43:51;;;;;;;;;;;12.80;99.90;;;;;;5122695;27;19926;-51
2023/10/22 03:46:17;;;;;;;;;;;12.80;99.90;;;;;;5119661;27;20281;-50
2023/10/22 03:48:42;;;;;;;;;;;12.80;99.90;;;;;;5123641;27;19918;-50
2023/10/22 03:51:07;;;;;;;;;;;12.80;99.90;;;;;;5125396;27;19911;-52
2023/10/22 03:53:33;;;;;;;;;;;12.80;99.90;;;;;;5120490;27;19945;-53
2023/10/22 03:56:00;;;;;;;;;;;12.80;99.90;;;;;;5123737;27;19965;-49
2023/10/22 03:58:25;;;;;;;;;;;12.80;99.90;;;;;;5119427;27;19907;-52
2023/10/22 04:00:53;;;;;;;;;;;12.80;99.90;;;;;;5127159;27;19919;-50
2023/10/22 04:03:18;;;;;;;;;;;12.80;99.90;;;;;;5121353;27;19912;-52
2023/10/22 04:05:43;;;;;;;;;;;12.80;99.90;;;;;;5123651;27;20278;-52
2023/10/22 04:08:09;;;;;;;;;;;12.80;99.90;;;;;;5123612;27;19907;-49
2023/10/22 04:10:35;;;;;;;;;;;12.70;99.90;;;;;;5120764;27;19919;-50
2023/10/22 04:13:01;;;;;;;;;;;12.70;99.90;;;;;;5125082;27;20381;-50
2023/10/22 04:15:27;;;;;;;;;;;12.70;99.90;;;;;;5127232;27;19932;-50
2023/10/22 04:17:53;;;;;;;;;;;12.70;99.90;;;;;;5124403;27;20014;-53
2023/10/22 04:20:18;;;;;;;;;;;12.70;99.90;;;;;;5135059;27;19998;-53
2023/10/22 04:22:44;;;;;;;;;;;12.60;99.90;;;;;;5133846;27;20286;-53
2023/10/22 04:25:10;;;;;;;;;;;12.60;99.90;;;;;;5134463;27;19998;-49
2023/10/22 04:27:35;;;;;;;;;;;12.60;99.90;;;;;;5134312;27;19998;-51
2023/10/22 04:30:04;;;;;;;;;;;12.60;99.90;;;;;;5134343;27;20058;-51
2023/10/22 04:32:31;;;;;;;;;;;12.60;99.90;;;;;;5128665;27;20404;-48
2023/10/22 04:34:57;;;;;;;;;;;12.60;99.90;;;;;;5113940;27;20377;-50
2023/10/22 04:37:23;;;;;;;;;;;12.60;99.90;;;;;;5113838;27;19943;-51
2023/10/22 04:39:49;;;;;;;;;;;12.50;99.90;;;;;;5114323;27;19969;-50
2023/10/22 04:42:14;;;;;;;;;;;12.60;99.90;;;;;;5115079;27;19915;-49
2023/10/22 04:44:45;;;;;;;;;;;12.50;99.90;;;;;;5125220;27;19914;-50
2023/10/22 04:47:11;;;;;;;;;;;12.50;99.90;;;;;;5113855;28;20385;-53
2023/10/22 04:49:36;;;;;;;;;;;12.50;99.90;;;;;;5128306;27;19908;-48
2023/10/22 04:52:02;;;;;;;;;;;12.50;99.90;;;;;;5129368;27;20355;-51
2023/10/22 04:54:27;;;;;;;;;;;12.50;99.90;;;;;;5127123;27;19938;-53
2023/10/22 04:56:53;;;;;;;;;;;12.50;99.90;;;;;;5119154;27;20421;-51
2023/10/22 04:59:19;;;;;;;;;;;12.50;99.90;;;;;;5122199;27;19922;-50
2023/10/22 05:01:44;;;;;;;;;;;12.50;99.90;;;;;;5124138;27;19911;-51
2023/10/22 05:04:10;;;;;;;;;;;12.50;99.90;;;;;;5117447;27;19971;-47
2023/10/22 05:06:35;;;;;;;;;;;12.50;99.90;;;;;;5120662;27;19942;-51
2023/10/22 05:09:01;;;;;;;;;;;12.50;99.90;;;;;;5125419;27;19965;-50
2023/10/22 05:11:26;;;;;;;;;;;12.50;99.90;;;;;;5117142;27;20362;-52
2023/10/22 05:13:52;;;;;;;;;;;12.50;99.90;;;;;;5125916;27;19915;-49
2023/10/22 05:16:17;;;;;;;;;;;12.50;99.90;;;;;;5122590;27;19918;-52
2023/10/22 05:18:43;;;;;;;;;;;12.50;99.90;;;;;;5121883;27;20342;-52
2023/10/22 05:21:09;;;;;;;;;;;12.60;99.90;;;;;;5123883;27;19919;-51
2023/10/22 05:23:35;;;;;;;;;;;12.60;99.90;;;;;;5118512;27;19912;-51
2023/10/22 05:26:04;;;;;;;;;;;12.60;99.90;;;;;;5122188;27;19920;-51
2023/10/22 05:28:29;;;;;;;;;;;12.60;99.90;;;;;;5123796;27;19912;-54
2023/10/22 05:30:55;;;;;;;;;;;12.60;99.90;;;;;;5117735;27;19912;-49
2023/10/22 05:33:20;;;;;;;;;;;12.60;99.90;;;;;;5129805;27;20386;-51
2023/10/22 05:35:46;;;;;;;;;;;12.60;99.90;;;;;;5130932;27;20051;-51
2023/10/22 05:38:11;;;;;;;;;;;12.60;99.90;;;;;;5121581;27;20374;-52
2023/10/22 05:40:37;;;;;;;;;;;12.60;99.90;;;;;;5119081;28;19964;-53
2023/10/22 05:43:03;;;;;;;;;;;12.60;99.90;;;;;;5126949;28;19918;-52
2023/10/22 05:45:28;;;;;;;;;;;12.70;99.90;;;;;;5126450;28;19918;-53
2023/10/22 05:47:53;;;;;;;;;;;12.70;99.90;;;;;;5127279;28;19911;-49
2023/10/22 05:50:19;;;;;;;;;;;12.60;99.90;;;;;;5125400;28;20411;-51
2023/10/22 05:52:45;;;;;;;;;;;12.60;99.90;;;;;;5124515;27;19915;-50
2023/10/22 05:55:13;;;;;;;;;;;12.60;99.90;;;;;;5132405;27;19941;-52
2023/10/22 05:57:39;;;;;;;;;;;12.70;99.90;;;;;;5121965;27;19931;-52
2023/10/22 06:00:07;;;;;;;;;;;12.60;99.90;;;;;;5127734;27;19998;-53
2023/10/22 06:02:32;;;;;;;;;;;12.60;99.90;;;;;;5119410;27;19974;-53
2023/10/22 06:04:59;;;;;;;;;;;12.70;99.90;;;;;;5129267;27;20314;-56
2023/10/22 06:07:24;;;;;;;;;;;12.70;99.90;;;;;;5121641;27;19919;-53
2023/10/22 06:09:50;;;;;;;;;;;12.70;99.90;;;;;;5126752;27;19912;-56
2023/10/22 06:12:16;;;;;;;;;;;12.70;99.90;;;;;;5126824;27;19954;-47
2023/10/22 06:14:41;;;;;;;;;;;12.70;99.90;;;;;;5126854;27;19918;-52
2023/10/22 06:17:07;;;;;;;;;;;12.60;99.90;;;;;;5128784;27;19911;-53
2023/10/22 06:19:33;;;;;;;;;;;12.60;99.90;;;;;;5123994;27;19978;-55
2023/10/22 06:21:58;;;;;;;;;;;12.60;99.90;;;;;;5126219;27;20405;-54
2023/10/22 06:24:24;;;;;;;;;;;12.50;99.90;;;;;;5128042;27;20003;-55
2023/10/22 06:26:49;;;;;;;;;;;12.50;99.90;;;;;;5116614;28;20396;-55
2023/10/22 06:29:15;;;;;;;;;;;12.50;99.90;;;;;;5128944;27;19960;-46
2023/10/22 06:31:40;;;;;;;;;;;12.40;99.90;;;;;;5137060;27;19911;-55
2023/10/22 06:34:05;;;;;;;;;;;12.40;99.90;;;;;;5128790;27;20068;-49
2023/10/22 06:36:31;;;;;;;;;;;12.30;99.90;;;;;;5120311;27;19912;-46
2023/10/22 06:38:56;;;;;;;;;;;12.20;99.90;;;;;;5126690;27;19920;-45
2023/10/22 06:41:22;;;;;;;;;;;12.20;99.90;;;;;;5124326;27;20418;-45
2023/10/22 06:43:48;;;;;;;;;;;12.10;99.90;;;;;;5123911;27;19912;-46
2023/10/22 06:46:14;;;;;;;;;;;12.00;99.90;;;;;;5118889;27;19912;-45
2023/10/22 06:48:40;;;;;;;;;;;12.00;99.90;;;;;;5119520;27;19926;-44
2023/10/22 06:51:10;;;;;;;;;;;11.90;99.90;;;;;;5122253;27;19998;-44
2023/10/22 06:53:36;;;;;;;;;;;11.90;99.90;;;;;;5120390;27;19919;-44
2023/10/22 06:56:12;;;;;;;;;;;11.80;99.90;;;;;;5123039;27;20350;-44
2023/10/22 06:58:37;;;;;;;;;;;11.80;99.90;;;;;;5119092;27;19908;-43
2023/10/22 07:01:09;;;;;;;;;;;11.80;99.90;;;;;;5119686;27;20370;-44
2023/10/22 07:03:36;;;;;;;;;;;11.80;99.90;;;;;;5114795;27;19915;-46
2023/10/22 07:06:01;;;;;;;;;;;11.70;99.90;;;;;;5136287;27;19914;-44
2023/10/22 07:08:27;;;;;;;;;;;11.70;99.90;;;;;;5120857;27;20274;-44
2023/10/22 07:10:53;;;;;;;;;;;11.70;99.90;;;;;;5125853;27;19915;-44
2023/10/22 07:13:20;;;;;;;;;;;11.70;99.90;;;;;;5115671;28;19926;-45
2023/10/22 07:15:46;;;;;;;;;;;11.70;99.90;;;;;;5115559;28;19911;-44
2023/10/22 07:18:12;;;;;;;;;;;11.80;99.90;;;;;;5123356;27;19915;-44
2023/10/22 07:20:38;;;;;;;;;;;11.80;99.90;;;;;;5136290;27;20278;-44
2023/10/22 07:23:04;;;;;;;;;;;11.80;99.90;;;;;;5136153;27;20366;-43
2023/10/22 07:25:29;;;;;;;;;;;11.80;99.90;;;;;;5122585;27;20370;-43
2023/10/22 07:27:55;;;;;;;;;;;11.80;99.90;;;;;;5135976;27;19908;-44
2023/10/22 07:30:20;;;;;;;;;;;11.80;99.90;;;;;;5128232;27;19908;-43
2023/10/22 07:32:49;;;;;;;;;;;11.80;99.90;;;;;;5115188;28;19923;-43
2023/10/22 07:35:14;;;;;;;;;;;11.80;99.90;;;;;;5115473;27;20375;-43
2023/10/22 07:37:42;;;;;;;;;;;11.80;99.90;;;;;;5123865;27;19920;-43
2023/10/22 07:40:08;;;;;;;;;;;11.80;99.90;;;;;;5124905;27;19915;-44
2023/10/22 07:42:34;;;;;;;;;;;11.80;99.90;;;;;;5126992;27;19907;-43
2023/10/22 07:44:59;;;;;;;;;;;11.80;99.90;;;;;;5124165;27;20408;-43
2023/10/22 07:47:25;;;;;;;;;;;11.80;99.90;;;;;;5115015;28;19908;-44
2023/10/22 07:49:51;;;;;;;;;;;11.80;99.90;;;;;;5114621;28;19908;-43
2023/10/22 07:52:17;;;;;;;;;;;11.80;99.90;;;;;;5119890;27;19942;-44
2023/10/22 07:54:45;;;;;;;;;;;11.80;99.90;;;;;;5135468;27;19907;-43
2023/10/22 07:57:10;;;;;;;;;;;11.80;99.90;;;;;;5135404;27;19907;-43
2023/10/22 07:59:35;;;;;;;;;;;11.80;99.90;;;;;;5135417;27;20015;-44
2023/10/22 08:02:01;;;;;;;;;;;11.90;99.90;;;;;;5132207;27;19912;-43
2023/10/22 08:04:26;;;;;;;;;;;11.90;99.90;;;;;;5121641;27;20429;-43
2023/10/22 08:06:52;;;;;;;;;;;11.90;99.90;;;;;;5123721;27;20006;-42
2023/10/22 08:09:17;;;;;;;;;;;11.90;99.90;;;;;;5119603;27;19912;-43
2023/10/22 08:11:43;;;;;;;;;;;12.00;99.90;;;;;;5124561;27;19937;-44
2023/10/22 08:14:08;;;;;;;;;;;12.00;99.90;;;;;;5124209;27;20393;-43
2023/10/22 08:16:34;;;;;;;;;;;12.00;99.90;;;;;;5134898;27;19914;-42
2023/10/22 08:19:00;;;;;;;;;;;12.10;99.90;;;;;;5134621;27;20297;-43
2023/10/22 08:21:25;;;;;;;;;;;12.10;99.90;;;;;;5135032;27;20401;-44
2023/10/22 08:23:51;;;;;;;;;;;12.10;99.90;;;;;;5130224;27;19995;-45
2023/10/22 08:26:16;;;;;;;;;;;12.10;99.90;;;;;;5114341;28;19912;-43
2023/10/22 08:28:42;;;;;;;;;;;12.20;99.90;;;;;;5114373;27;20386;-44
2023/10/22 08:31:07;;;;;;;;;;;12.20;99.90;;;;;;5122598;27;20414;-43
2023/10/22 08:33:33;;;;;;;;;;;12.30;99.90;;;;;;5132683;27;19920;-43
2023/10/22 08:36:05;;;;;;;;;;;12.30;99.90;;;;;;5121284;27;19918;-44
2023/10/22 08:38:31;;;;;;;;;;;12.30;99.90;;;;;;5121924;27;19965;-43
2023/10/22 08:40:58;;;;;;;;;;;12.30;99.90;;;;;;5117583;27;20247;-44
2023/10/22 08:43:24;;;;;;;;;;;12.40;99.90;;;;;;5128924;27;20324;-43
2023/10/22 08:45:50;;;;;;;;;;;12.40;99.90;;;;;;5123113;27;19919;-43
2023/10/22 08:48:16;;;;;;;;;;;12.50;99.90;;;;;;5117687;27;19912;-43
2023/10/22 08:50:43;;;;;;;;;;;12.60;99.90;;;;;;5129850;27;19943;-43
2023/10/22 08:53:10;;;;;;;;;;;12.60;99.90;;;;;;5118959;27;19920;-44
2023/10/22 08:55:36;;;;;;;;;;;12.60;99.90;;;;;;5113517;28;19958;-45
2023/10/22 08:58:02;;;;;;;;;;;12.70;99.90;;;;;;5123466;27;19959;-43
2023/10/22 09:00:28;;;;;;;;;;;12.80;99.90;;;;;;5133012;27;20266;-43
2023/10/22 09:02:53;;;;;;;;;;;12.80;99.90;;;;;;5132781;27;20339;-44
2023/10/22 09:05:19;;;;;;;;;;;12.80;99.90;;;;;;5131981;27;20430;-43
2023/10/22 09:07:52;;;;;;;;;;;12.90;99.90;;;;;;5132497;27;20434;-44
2023/10/22 09:10:29;;;;;;;;;;;13.00;99.90;;;;;;5122526;27;19963;-43
2023/10/22 09:13:08;;;;;;;;;;;13.00;99.90;;;;;;5126780;27;20459;-44
2023/10/22 09:15:37;;;;;;;;;;;13.00;99.90;;;;;;5130935;27;19984;-42
2023/10/22 09:18:03;;;;;;;;;;;13.10;99.90;;;;;;5126277;27;19918;-43
2023/10/22 09:20:29;;;;;;;;;;;13.20;99.90;;;;;;5133577;27;20148;-43
2023/10/22 09:23:14;;;;;;;;;;;13.20;99.90;;;;;;5128290;27;19912;-43
2023/10/22 09:25:40;;;;;;;;;;;13.20;99.90;;;;;;5113139;28;20262;-42
2023/10/22 09:28:12;;;;;;;;;;;13.30;99.90;;;;;;5133538;27;19915;-43
2023/10/22 09:30:38;;;;;;;;;;;13.40;99.90;;;;;;5134300;27;20128;-43
2023/10/22 09:33:04;;;;;;;;;;;13.30;99.90;;;;;;5125868;27;20067;-43
2023/10/22 09:35:29;;;;;;;;;;;13.40;99.90;;;;;;5113541;28;19919;-44
2023/10/22 09:37:58;;;;;;;;;;;13.30;99.90;;;;;;5130709;27;20319;-44
2023/10/22 09:40:24;;;;;;;;;;;13.30;99.90;;;;;;5124984;28;20355;-43
2023/10/22 09:42:52;;;;;;;;;;;13.30;99.90;;;;;;5116267;28;20002;-44
2023/10/22 09:45:18;;;;;;;;;;;13.30;99.90;;;;;;5129736;28;20022;-43
2023/10/22 09:47:47;;;;;;;;;;;13.30;99.90;;;;;;5133071;28;19908;-43
2023/10/22 09:50:18;;;;;;;;;;;13.30;99.90;;;;;;5124007;28;19919;-42
2023/10/22 09:52:43;;;;;;;;;;;13.30;99.90;;;;;;5134149;28;19915;-43
2023/10/22 09:55:13;;;;;;;;;;;13.40;99.90;;;;;;5133320;28;19918;-43
2023/10/22 09:57:40;;;;;;;;;;;13.50;99.90;;;;;;5134091;28;19911;-44
2023/10/22 10:00:12;;;;;;;;;;;13.60;99.90;;;;;;5132745;28;19916;-43
2023/10/22 10:02:41;;;;;;;;;;;13.70;99.90;;;;;;5134043;28;19938;-41
2023/10/22 10:05:09;;;;;;;;;;;13.70;99.90;;;;;;5133614;28;19911;-42
2023/10/22 10:07:36;;;;;;;;;;;13.90;99.90;;;;;;5134276;28;19969;-40
2023/10/22 10:10:03;;;;;;;;;;;14.00;99.90;;;;;;5134049;28;19907;-40
2023/10/22 10:12:31;;;;;;;;;;;14.10;99.90;;;;;;5133655;28;20010;-41
2023/10/22 10:14:56;;;;;;;;;;;14.20;99.90;;;;;;5130223;28;19915;-43
